Time;durP1;ratioP1;P1;durP2;ratioP2;P2;SDS_P1;SDS_P2;PMS_P1;PMS_P2;Temp;Humidity;BMP_temperature;BMP_pressure;BME280_temperature;BME280_humidity;BME280_pressure;Samples;Min_cycle;Max_cycle;Signal;HPM_P1;HPM_P2
2022/09/15 00:01:42;;;;;;;5.33;2.00;;;;;;;13.75;100.00;99780.63;5055278;28;20443;-70
2022/09/15 00:04:10;;;;;;;5.57;1.93;;;;;;;13.74;100.00;99776.34;5055198;28;20443;-68
2022/09/15 00:06:37;;;;;;;4.50;1.60;;;;;;;13.72;100.00;99781.31;5055147;28;20529;-69
2022/09/15 00:09:04;;;;;;;6.07;2.40;;;;;;;13.73;100.00;99785.66;5054630;28;20493;-69
2022/09/15 00:11:32;;;;;;;5.43;2.30;;;;;;;13.72;100.00;99785.97;5055099;28;20500;-69
2022/09/15 00:14:01;;;;;;;8.80;2.63;;;;;;;13.69;100.00;99787.47;5054990;28;20446;-69
2022/09/15 00:16:29;;;;;;;7.90;2.10;;;;;;;13.68;100.00;99785.88;5055193;28;20454;-70
2022/09/15 00:18:57;;;;;;;5.53;1.60;;;;;;;13.74;100.00;99789.94;5054560;28;20500;-70
2022/09/15 00:21:27;;;;;;;4.37;1.60;;;;;;;13.73;100.00;99784.84;5055026;28;20844;-70
2022/09/15 00:23:54;;;;;;;9.40;2.13;;;;;;;13.77;100.00;99788.47;5054915;28;20430;-71
2022/09/15 00:26:23;;;;;;;9.43;2.50;;;;;;;13.76;100.00;99776.78;5054960;28;20496;-70
2022/09/15 00:28:50;;;;;;;4.70;1.87;;;;;;;13.76;100.00;99779.50;5054683;28;20449;-71
2022/09/15 00:31:18;;;;;;;4.80;1.90;;;;;;;13.73;100.00;99782.91;5054563;28;20442;-70
2022/09/15 00:33:47;;;;;;;5.60;1.50;;;;;;;13.73;100.00;99782.91;5054758;28;20438;-69
2022/09/15 00:36:14;;;;;;;5.10;1.70;;;;;;;13.69;100.00;99782.00;5054496;28;20451;-72
2022/09/15 00:38:42;;;;;;;5.47;2.50;;;;;;;13.64;100.00;99774.09;5054457;28;20547;-71
2022/09/15 00:41:10;;;;;;;5.10;1.90;;;;;;;13.64;100.00;99774.09;5054394;28;20989;-70
2022/09/15 00:43:47;;;;;;;5.87;2.13;;;;;;;13.64;100.00;99774.09;5054263;28;20997;-70
2022/09/15 00:46:15;;;;;;;5.67;2.57;;;;;;;13.61;100.00;99777.47;5054545;28;20468;-70
2022/09/15 00:48:47;;;;;;;5.90;2.20;;;;;;;13.59;100.00;99779.72;5054188;28;20473;-69
2022/09/15 00:51:18;;;;;;;6.27;2.03;;;;;;;13.51;100.00;99778.72;5054304;28;20472;-70
2022/09/15 00:53:48;;;;;;;5.33;2.30;;;;;;;13.45;100.00;99782.81;5054272;28;20427;-70
2022/09/15 00:56:17;;;;;;;5.60;2.37;;;;;;;13.47;100.00;99785.19;5054069;28;21014;-70
2022/09/15 00:58:54;;;;;;;8.20;2.03;;;;;;;13.50;100.00;99779.06;5053739;28;20979;-70
2022/09/15 01:01:23;;;;;;;5.40;2.03;;;;;;;13.47;100.00;99779.75;5053996;28;20912;-70
2022/09/15 01:03:49;;;;;;;4.70;1.87;;;;;;;13.39;100.00;99778.72;5053812;28;20457;-67
2022/09/15 01:06:22;;;;;;;6.30;2.53;;;;;;;13.32;100.00;99784.72;5053697;28;20450;-70
2022/09/15 01:08:56;;;;;;;5.87;1.93;;;;;;;13.30;100.00;99784.28;5053411;28;20473;-70
2022/09/15 01:11:23;;;;;;;4.60;1.50;;;;;;;13.27;100.00;99782.22;5053936;28;20826;-68
2022/09/15 01:13:49;;;;;;;7.67;1.87;;;;;;;13.22;100.00;99781.63;5053660;28;20454;-70
2022/09/15 01:16:25;;;;;;;7.00;2.43;;;;;;;13.24;100.00;99776.69;5053893;28;20442;-69
2022/09/15 01:19:00;;;;;;;6.83;1.60;;;;;;;13.26;100.00;99775.19;5053825;28;20882;-70
2022/09/15 01:21:37;;;;;;;11.20;2.20;;;;;;;13.26;100.00;99785.28;5053636;28;20479;-69
2022/09/15 01:24:39;;;;;;;5.90;2.13;;;;;;;13.24;100.00;99782.91;5053777;28;20437;-69
2022/09/15 01:27:16;;;;;;;5.87;2.37;;;;;;;13.19;100.00;99774.94;5051337;28;20836;-70
2022/09/15 01:30:14;;;;;;;8.17;1.80;;;;;;;13.11;100.00;99778.56;5053606;28;20445;-70
2022/09/15 01:33:03;;;;;;;4.27;1.77;;;;;;;13.03;100.00;99788.41;5053409;28;20423;-70
2022/09/15 01:35:51;;;;;;;7.77;2.10;;;;;;;12.99;100.00;99790.19;5053515;28;20923;-70
2022/09/15 01:38:25;;;;;;;7.63;3.10;;;;;;;13.01;100.00;99789.84;5053487;28;20461;-70
2022/09/15 01:40:59;;;;;;;19.60;3.60;;;;;;;13.11;100.00;99792.16;5053594;28;20466;-71
2022/09/15 01:43:28;;;;;;;7.70;2.80;;;;;;;13.17;100.00;99779.91;5053585;28;20426;-70
2022/09/15 01:45:58;;;;;;;7.07;2.30;;;;;;;13.23;100.00;99792.19;5053479;28;20454;-69
2022/09/15 01:48:28;;;;;;;4.40;2.00;;;;;;;13.27;100.00;99793.09;5053628;28;20465;-69
2022/09/15 01:50:57;;;;;;;6.60;2.90;;;;;;;13.32;100.00;99797.53;5053517;28;20438;-68
2022/09/15 01:53:24;;;;;;;17.60;2.53;;;;;;;13.30;100.00;99797.88;5053308;28;20441;-69
2022/09/15 01:55:55;;;;;;;7.07;2.30;;;;;;;13.35;100.00;99788.69;5053333;28;20496;-67
2022/09/15 01:58:22;;;;;;;11.30;3.00;;;;;;;13.36;100.00;99791.06;5053478;28;20458;-69
2022/09/15 02:00:53;;;;;;;5.50;2.17;;;;;;;13.45;100.00;99792.88;5053176;28;20540;-68
2022/09/15 02:03:27;;;;;;;5.37;2.63;;;;;;;13.50;100.00;99796.19;5053200;28;20423;-70
2022/09/15 02:06:01;;;;;;;7.03;2.13;;;;;;;13.53;100.00;99789.28;5053347;28;20434;-69
2022/09/15 02:08:35;;;;;;;4.80;2.23;;;;;;;13.52;100.00;99787.69;5053082;28;20524;-70
2022/09/15 02:11:11;;;;;;;6.00;1.90;;;;;;;13.50;100.00;99773.63;5053403;28;20445;-69
2022/09/15 02:13:47;;;;;;;5.57;2.53;;;;;;;13.42;100.00;99772.63;5053228;28;20525;-69
2022/09/15 02:16:18;;;;;;;5.43;2.23;;;;;;;13.44;100.00;99791.31;5053119;28;20423;-69
2022/09/15 02:18:57;;;;;;;5.43;1.90;;;;;;;13.41;100.00;99795.50;5053260;28;20473;-69
2022/09/15 02:21:30;;;;;;;6.77;2.80;;;;;;;13.46;100.00;99791.75;5053042;28;20511;-70
2022/09/15 02:24:02;;;;;;;5.30;2.10;;;;;;;13.41;100.00;99794.69;5053186;28;20529;-70
2022/09/15 02:26:32;;;;;;;8.53;2.60;;;;;;;13.36;100.00;99799.22;5053373;28;20461;-71
2022/09/15 02:29:02;;;;;;;5.27;1.90;;;;;;;13.30;100.00;99792.44;5053412;28;20454;-70
2022/09/15 02:31:30;;;;;;;5.40;2.03;;;;;;;13.23;100.00;99794.13;5053403;28;20438;-71
2022/09/15 02:34:02;;;;;;;7.57;2.30;;;;;;;13.09;100.00;99781.59;5053185;28;20446;-70
2022/09/15 02:36:29;;;;;;;4.53;2.00;;;;;;;13.01;100.00;99789.84;5053119;28;20429;-70
2022/09/15 02:39:01;;;;;;;5.70;2.40;;;;;;;12.84;100.00;99785.41;5055365;28;20838;-70
2022/09/15 02:41:28;;;;;;;5.57;2.30;;;;;;;12.94;100.00;99790.41;5056515;28;20466;-70
2022/09/15 02:43:54;;;;;;;5.73;1.93;;;;;;;12.98;100.00;99791.34;5056831;28;20446;-68
2022/09/15 02:46:22;;;;;;;8.80;2.33;;;;;;;12.95;100.00;99783.06;5056736;28;20499;-71
2022/09/15 02:48:49;;;;;;;5.20;2.17;;;;;;;12.94;100.00;99778.75;5056493;28;20457;-71
2022/09/15 02:51:18;;;;;;;8.00;2.80;;;;;;;12.88;100.00;99787.13;5056702;28;20533;-69
2022/09/15 02:53:45;;;;;;;5.57;2.60;;;;;;;12.87;100.00;99782.81;5056458;28;20445;-69
2022/09/15 02:56:11;;;;;;;5.10;1.70;;;;;;;12.80;100.00;99785.28;5056434;28;20438;-71
2022/09/15 02:58:38;;;;;;;4.93;2.00;;;;;;;12.77;100.00;99783.22;5056703;28;20462;-71
2022/09/15 03:01:06;;;;;;;9.57;2.17;;;;;;;12.70;100.00;99788.41;5056075;28;20557;-69
2022/09/15 03:03:34;;;;;;;6.37;2.00;;;;;;;12.69;100.00;99788.75;5055927;28;20450;-69
2022/09/15 03:08:43;;;;;;;5.60;2.07;;;;;;;12.67;100.00;99782.88;5055467;28;20470;-69
2022/09/15 03:11:11;;;;;;;7.57;2.20;;;;;;;12.64;100.00;99781.59;5056339;28;20442;-69
2022/09/15 03:13:37;;;;;;;5.60;2.00;;;;;;;12.58;100.00;99778.31;5056194;28;20469;-69
2022/09/15 03:16:07;;;;;;;5.27;1.73;;;;;;;12.41;100.00;99783.09;5056096;28;20449;-70
2022/09/15 03:18:34;;;;;;;8.10;2.60;;;;;;;12.38;100.00;99779.91;5055979;28;20466;-69
2022/09/15 03:21:00;;;;;;;12.40;2.50;;;;;;;12.35;100.00;99786.03;5055817;28;21068;-69
2022/09/15 03:23:27;;;;;;;4.63;2.07;;;;;;;12.31;100.00;99778.88;5055971;28;20537;-70
2022/09/15 03:25:55;;;;;;;4.97;2.10;;;;;;;12.32;100.00;99781.25;5055967;28;20545;-69
2022/09/15 03:28:21;;;;;;;7.10;2.50;;;;;;;12.34;100.00;99776.28;5055790;28;20468;-69
2022/09/15 03:30:48;;;;;;;14.37;2.23;;;;;;;12.30;100.00;99783.50;5055820;28;20515;-70
2022/09/15 03:33:14;;;;;;;5.70;2.57;;;;;;;12.25;100.00;99788.34;5055819;28;20438;-69
2022/09/15 03:35:41;;;;;;;4.70;2.17;;;;;;;12.18;100.00;99783.44;5055827;28;20815;-69
2022/09/15 03:38:07;;;;;;;5.10;2.00;;;;;;;12.01;100.00;99780.88;5055574;28;20473;-69
2022/09/15 03:40:34;;;;;;;11.07;2.73;;;;;;;11.84;100.00;99777.13;5055204;28;21021;-69
2022/09/15 03:43:02;;;;;;;5.50;2.10;;;;;;;11.77;100.00;99776.81;5055614;28;20446;-69
2022/09/15 03:45:29;;;;;;;4.80;2.10;;;;;;;11.79;100.00;99780.00;5055622;28;20446;-70
2022/09/15 03:47:55;;;;;;;5.70;2.80;;;;;;;11.88;100.00;99784.63;5055457;28;20462;-69
2022/09/15 03:50:21;;;;;;;4.90;2.20;;;;;;;11.88;100.00;99784.63;5054983;28;20438;-69
2022/09/15 03:52:48;;;;;;;5.13;2.20;;;;;;;11.90;100.00;99779.66;5055350;28;20451;-69
2022/09/15 03:55:14;;;;;;;5.50;2.03;;;;;;;11.84;100.00;99770.91;5055598;28;20500;-69
2022/09/15 03:57:41;;;;;;;5.20;2.07;;;;;;;11.87;100.00;99783.84;5055141;28;20473;-69
2022/09/15 04:00:10;;;;;;;10.53;2.23;;;;;;;11.93;100.00;99774.38;5055233;28;20501;-69
2022/09/15 04:02:37;;;;;;;5.10;2.13;;;;;;;11.97;100.00;99774.50;5055277;28;20467;-71
2022/09/15 04:05:04;;;;;;;8.10;2.30;;;;;;;12.05;100.00;99773.66;5055439;28;20445;-69
2022/09/15 04:07:30;;;;;;;7.30;2.57;;;;;;;12.08;100.00;99771.03;5055138;28;20492;-70
2022/09/15 04:09:57;;;;;;;5.40;2.13;;;;;;;12.11;100.00;99769.59;5055440;28;20418;-71
2022/09/15 04:12:23;;;;;;;5.30;1.90;;;;;;;12.11;100.00;99766.88;5055150;28;20442;-71
2022/09/15 04:14:49;;;;;;;6.37;2.47;;;;;;;12.11;100.00;99772.31;5055287;28;20520;-70
2022/09/15 04:17:17;;;;;;;7.10;2.60;;;;;;;12.12;100.00;99771.19;5055008;28;20500;-71
2022/09/15 04:19:44;;;;;;;18.33;2.50;;;;;;;12.13;100.00;99761.94;5054793;28;20430;-71
2022/09/15 04:22:10;;;;;;;6.93;2.50;;;;;;;12.14;100.00;99773.59;5054921;28;20540;-71
2022/09/15 04:24:37;;;;;;;7.07;1.93;;;;;;;12.12;100.00;99768.47;5054783;28;21033;-71
2022/09/15 04:27:03;;;;;;;9.17;3.30;;;;;;;12.14;100.00;99779.81;5054770;28;20500;-70
2022/09/15 04:29:30;;;;;;;5.70;2.73;;;;;;;12.17;100.00;99770.97;5054670;28;20520;-71
2022/09/15 04:31:57;;;;;;;6.47;2.47;;;;;;;12.19;100.00;99768.75;5054665;28;20446;-70
2022/09/15 04:34:24;;;;;;;7.63;2.50;;;;;;;12.23;100.00;99772.38;5054752;28;20492;-72
2022/09/15 04:36:51;;;;;;;6.60;2.63;;;;;;;12.28;100.00;99769.47;5054587;28;20453;-70
2022/09/15 04:39:18;;;;;;;5.57;2.80;;;;;;;12.28;100.00;99766.75;5054627;28;20477;-72
2022/09/15 04:41:44;;;;;;;7.33;2.67;;;;;;;12.31;100.00;99766.09;5054792;28;20478;-71
2022/09/15 04:44:11;;;;;;;10.83;3.67;;;;;;;12.33;100.00;99763.03;5054585;28;20962;-70
2022/09/15 04:46:37;;;;;;;10.60;2.93;;;;;;;12.37;100.00;99759.31;5054347;28;20450;-70
2022/09/15 04:49:04;;;;;;;4.90;1.97;;;;;;;12.40;100.00;99770.66;5054260;28;20469;-70
2022/09/15 04:51:32;;;;;;;8.50;2.80;;;;;;;12.47;100.00;99773.63;5054345;28;20442;-71
2022/09/15 04:53:58;;;;;;;5.70;2.57;;;;;;;12.55;100.00;99764.59;5054137;28;20851;-71
2022/09/15 04:56:26;;;;;;;6.50;3.07;;;;;;;12.56;100.00;99768.91;5054030;28;20442;-71
2022/09/15 04:58:54;;;;;;;6.10;2.73;;;;;;;12.54;100.00;99765.72;5054294;28;20451;-71
2022/09/15 05:01:22;;;;;;;7.40;2.87;;;;;;;12.55;100.00;99762.66;5053464;28;20482;-70
2022/09/15 05:03:49;;;;;;;6.97;3.63;;;;;;;12.55;100.00;99761.88;5054341;28;20454;-71
2022/09/15 05:06:18;;;;;;;9.53;3.80;;;;;;;12.55;100.00;99765.38;5054126;28;20439;-70
2022/09/15 05:08:48;;;;;;;6.10;2.80;;;;;;;12.58;100.00;99759.28;5053667;28;20489;-71
2022/09/15 05:11:15;;;;;;;9.63;2.50;;;;;;;12.58;100.00;99761.22;5053840;28;20414;-71
2022/09/15 05:13:42;;;;;;;8.20;3.17;;;;;;;12.60;100.00;99756.22;5054073;28;20520;-71
2022/09/15 05:16:11;;;;;;;10.03;3.77;;;;;;;12.64;100.00;99765.31;5053905;28;20442;-71
2022/09/15 05:18:38;;;;;;;7.33;2.97;;;;;;;12.68;100.00;99766.22;5053873;28;20915;-71
2022/09/15 05:21:06;;;;;;;9.13;3.50;;;;;;;12.73;100.00;99762.50;5053576;28;20999;-72
2022/09/15 05:23:33;;;;;;;7.93;3.37;;;;;;;12.75;100.00;99766.47;5053703;28;20832;-73
2022/09/15 05:26:03;;;;;;;6.93;3.17;;;;;;;12.75;100.00;99771.09;5053802;28;20453;-69
2022/09/15 05:28:32;;;;;;;9.83;3.47;;;;;;;12.77;100.00;99772.38;5053453;28;20462;-71
2022/09/15 05:30:59;;;;;;;8.40;3.00;;;;;;;12.85;100.00;99771.50;5053613;28;20450;-70
2022/09/15 05:33:25;;;;;;;7.07;3.40;;;;;;;12.88;100.00;99776.25;5053687;28;20496;-71
2022/09/15 05:35:53;;;;;;;8.50;3.37;;;;;;;12.87;100.00;99777.38;5053609;28;20442;-71
2022/09/15 05:38:20;;;;;;;6.63;2.90;;;;;;;12.88;100.00;99770.00;5053577;28;20461;-71
2022/09/15 05:40:47;;;;;;;10.67;3.13;;;;;;;12.92;100.00;99775.56;5053569;28;20943;-71
2022/09/15 05:43:15;;;;;;;8.47;3.13;;;;;;;12.96;100.00;99777.28;5053481;28;20451;-71
2022/09/15 05:45:42;;;;;;;7.70;3.17;;;;;;;12.99;100.00;99787.47;5053527;28;20438;-71
2022/09/15 05:48:09;;;;;;;6.87;3.00;;;;;;;13.05;100.00;99786.13;5053460;28;20461;-70
2022/09/15 05:50:36;;;;;;;7.27;2.70;;;;;;;13.06;100.00;99798.59;5053106;28;20440;-70
2022/09/15 05:53:03;;;;;;;8.90;3.17;;;;;;;13.14;100.00;99789.53;5053151;28;20959;-71
2022/09/15 05:55:29;;;;;;;5.97;2.40;;;;;;;13.19;100.00;99795.88;5053431;28;20464;-70
2022/09/15 05:57:56;;;;;;;8.90;3.10;;;;;;;13.23;100.00;99803.06;5053368;28;20468;-68
2022/09/15 06:00:24;;;;;;;13.47;3.43;;;;;;;13.29;100.00;99798.22;5053107;28;20445;-69
2022/09/15 06:02:51;;;;;;;7.50;3.10;;;;;;;13.29;100.00;99793.56;5052827;28;20452;-72
2022/09/15 06:05:17;;;;;;;15.50;3.30;;;;;;;13.37;100.00;99792.69;5053330;28;20443;-71
2022/09/15 06:07:43;;;;;;;5.70;2.70;;;;;;;13.44;100.00;99791.31;5053074;28;20555;-72
2022/09/15 06:10:10;;;;;;;7.47;3.20;;;;;;;13.52;100.00;99793.13;5052956;28;20797;-72
2022/09/15 06:12:37;;;;;;;7.80;2.83;;;;;;;13.57;100.00;99799.13;5054958;28;20492;-72
2022/09/15 06:15:03;;;;;;;6.43;2.57;;;;;;;13.67;100.00;99797.09;5057535;28;20496;-70
2022/09/15 06:17:32;;;;;;;9.07;2.80;;;;;;;13.74;100.00;99797.31;5057312;28;20438;-70
2022/09/15 06:19:59;;;;;;;6.17;2.70;;;;;;;13.84;100.00;99800.34;5057083;28;20446;-69
2022/09/15 06:22:25;;;;;;;6.50;3.03;;;;;;;13.92;100.00;99797.88;5057088;28;20489;-70
2022/09/15 06:24:52;;;;;;;5.77;2.30;;;;;;;14.02;100.00;99800.09;5057062;28;20862;-70
2022/09/15 06:27:19;;;;;;;5.37;2.67;;;;;;;14.08;100.00;99798.75;5056774;28;20958;-70
2022/09/15 06:29:45;;;;;;;6.20;2.37;;;;;;;14.15;100.00;99798.94;5056782;28;21034;-70
2022/09/15 06:32:12;;;;;;;4.83;2.30;;;;;;;14.20;100.00;99793.25;5056878;28;20446;-70
2022/09/15 06:34:39;;;;;;;4.83;2.17;;;;;;;14.27;100.00;99788.03;5056933;28;20434;-70
2022/09/15 06:37:06;;;;;;;7.20;2.67;;;;;;;14.32;100.00;99795.94;5056837;28;20793;-70
2022/09/15 06:39:33;;;;;;;5.70;2.70;;;;;;;14.33;100.00;99800.25;5056404;28;20854;-70
2022/09/15 06:42:00;;;;;;;8.67;2.40;;;;;;;14.38;100.00;99804.66;5056871;28;20541;-70
2022/09/15 06:44:27;;;;;;;9.60;2.13;;;;;;;14.43;100.00;99803.63;5056423;28;20503;-71
2022/09/15 06:46:53;;;;;;;5.60;2.10;;;;;;;14.41;100.00;99801.25;5056752;28;20437;-70
2022/09/15 06:49:20;;;;;;;6.27;2.43;;;;;;;14.47;100.00;99807.25;5056517;28;20869;-70
2022/09/15 06:51:48;;;;;;;8.10;3.03;;;;;;;14.51;100.00;99810.91;5056760;28;20442;-70
2022/09/15 06:54:15;;;;;;;6.73;2.50;;;;;;;14.57;100.00;99809.53;5056302;28;20943;-70
2022/09/15 06:56:42;;;;;;;7.30;3.03;;;;;;;14.64;100.00;99815.97;5056441;28;20477;-70
2022/09/15 06:59:11;;;;;;;7.73;2.53;;;;;;;14.69;100.00;99816.84;5056225;28;20466;-71
2022/09/15 07:01:37;;;;;;;11.17;3.17;;;;;;;14.70;100.00;99823.88;5056214;28;20486;-70
2022/09/15 07:04:07;;;;;;;7.67;3.03;;;;;;;14.76;100.00;99826.03;5055922;28;20449;-70
2022/09/15 07:06:34;;;;;;;6.87;2.30;;;;;;;14.83;100.00;99823.50;5056264;28;20445;-70
2022/09/15 07:09:02;;;;;;;8.23;1.60;;;;;;;14.87;100.00;99829.03;5055755;28;20474;-70
2022/09/15 07:11:28;;;;;;;5.67;2.27;;;;;;;14.97;100.00;99833.22;5056106;28;20488;-71
2022/09/15 07:13:55;;;;;;;6.77;1.90;;;;;;;15.00;100.00;99825.09;5056121;28;20430;-71
2022/09/15 07:16:24;;;;;;;6.60;2.20;;;;;;;15.03;100.00;99834.53;5055622;28;21085;-71
2022/09/15 07:18:51;;;;;;;5.40;2.43;;;;;;;15.06;99.80;99836.56;5055979;28;20462;-71
2022/09/15 07:21:19;;;;;;;8.53;2.13;;;;;;;15.15;99.09;99834.47;5055854;28;20553;-71
2022/09/15 07:23:47;;;;;;;5.70;2.17;;;;;;;15.15;98.98;99831.75;5055325;28;20474;-71
2022/09/15 07:26:17;;;;;;;4.63;2.00;;;;;;;15.05;98.39;99837.69;5055907;28;20450;-71
2022/09/15 07:28:45;;;;;;;7.40;2.60;;;;;;;15.08;97.87;99845.97;5056030;28;20465;-71
2022/09/15 07:31:15;;;;;;;5.50;2.40;;;;;;;15.06;98.38;99842.03;5055826;28;20800;-70
2022/09/15 07:33:42;;;;;;;4.07;1.43;;;;;;;15.07;98.92;99846.34;5055727;28;20515;-70
2022/09/15 07:36:09;;;;;;;6.37;2.20;;;;;;;15.14;98.20;99849.25;5055946;28;20453;-70
2022/09/15 07:38:40;;;;;;;7.03;2.77;;;;;;;15.06;97.99;99852.94;5055319;28;20465;-71
2022/09/15 07:41:08;;;;;;;8.80;2.40;;;;;;;15.14;97.89;99854.72;5055755;28;20442;-71
2022/09/15 07:43:36;;;;;;;5.10;1.80;;;;;;;15.24;96.73;99858.88;5055753;28;20442;-71
2022/09/15 07:46:03;;;;;;;10.70;2.30;;;;;;;15.30;96.49;99855.50;5055886;28;20446;-70
2022/09/15 07:48:30;;;;;;;6.00;2.53;;;;;;;15.33;95.97;99852.09;5055480;28;20478;-70
2022/09/15 07:50:58;;;;;;;5.20;1.70;;;;;;;15.37;96.19;99854.91;5055463;28;20454;-70
2022/09/15 07:53:27;;;;;;;5.73;2.30;;;;;;;15.46;95.18;99852.81;5055179;28;20936;-71
2022/09/15 07:55:54;;;;;;;7.20;2.00;;;;;;;15.55;95.73;99853.44;5055418;28;20510;-70
2022/09/15 07:58:20;;;;;;;12.73;1.80;;;;;;;15.64;95.14;99856.78;5055400;28;20801;-70
2022/09/15 08:00:48;;;;;;;4.73;1.97;;;;;;;15.63;93.82;99859.84;5055271;28;20438;-70
2022/09/15 08:03:15;;;;;;;9.33;2.07;;;;;;;15.50;93.96;99855.63;5055176;28;20489;-71
2022/09/15 08:05:42;;;;;;;6.80;1.87;;;;;;;15.55;94.54;99858.88;5055022;28;20446;-70
2022/09/15 08:08:09;;;;;;;4.50;1.70;;;;;;;15.51;95.39;99857.22;5054881;28;20482;-70
2022/09/15 08:10:38;;;;;;;7.37;1.80;;;;;;;15.66;95.25;99858.38;5054947;28;20958;-70
2022/09/15 08:13:05;;;;;;;4.00;1.43;;;;;;;15.73;95.15;99864.81;5055130;28;20444;-70
2022/09/15 08:15:31;;;;;;;5.50;1.80;;;;;;;15.93;94.08;99854.72;5054653;28;20517;-70
2022/09/15 08:17:59;;;;;;;4.20;1.63;;;;;;;16.02;92.85;99862.75;5054962;28;20462;-70
2022/09/15 08:20:26;;;;;;;5.53;1.60;;;;;;;16.14;92.39;99868.09;5054883;28;20469;-70
2022/09/15 08:22:52;;;;;;;3.90;1.50;;;;;;;16.21;92.53;99868.28;5054781;28;20486;-72
2022/09/15 08:25:19;;;;;;;8.40;1.63;;;;;;;16.19;92.83;99865.09;5054507;28;20445;-72
2022/09/15 08:27:45;;;;;;;5.47;1.67;;;;;;;16.20;91.69;99863.94;5054847;28;20466;-70
2022/09/15 08:30:12;;;;;;;5.80;1.70;;;;;;;16.11;92.02;99872.34;5054620;28;20442;-70
2022/09/15 08:32:39;;;;;;;5.90;2.07;;;;;;;16.09;90.85;99871.09;5054331;28;20935;-69
2022/09/15 08:35:07;;;;;;;7.37;2.17;;;;;;;16.12;90.45;99876.66;5054520;28;20446;-68
2022/09/15 08:37:34;;;;;;;7.20;1.67;;;;;;;16.19;90.56;99867.81;5054399;28;20512;-69
2022/09/15 08:40:00;;;;;;;5.00;1.13;;;;;;;16.29;91.35;99864.56;5054221;28;20947;-70
2022/09/15 08:42:28;;;;;;;6.50;1.57;;;;;;;16.40;91.63;99865.56;5054316;28;20497;-67
2022/09/15 08:44:57;;;;;;;9.03;2.53;;;;;;;16.45;90.51;99874.63;5053917;28;20450;-69
2022/09/15 08:47:27;;;;;;;4.63;1.87;;;;;;;16.45;89.55;99869.16;5054186;28;20442;-70
2022/09/15 08:50:02;;;;;;;9.07;2.37;;;;;;;16.38;90.21;99876.06;5054203;28;20419;-70
2022/09/15 08:52:38;;;;;;;3.33;1.13;;;;;;;16.46;90.37;99873.47;5054304;28;20430;-69
2022/09/15 08:55:13;;;;;;;4.30;1.50;;;;;;;16.50;89.54;99875.13;5054257;28;20411;-70
2022/09/15 08:57:40;;;;;;;6.43;1.40;;;;;;;16.41;89.35;99871.81;5053882;28;20987;-70
2022/09/15 09:00:14;;;;;;;3.40;1.03;;;;;;;16.46;89.54;99863.31;5054185;28;20453;-70
2022/09/15 09:03:06;;;;;;;3.73;1.60;;;;;;;16.47;90.35;99864.94;5054080;28;20471;-71
2022/09/15 09:05:44;;;;;;;3.73;1.23;;;;;;;16.61;90.78;99858.97;5054188;28;20908;-71
2022/09/15 09:08:29;;;;;;;3.90;1.57;;;;;;;16.62;90.49;99864.06;5054044;28;20536;-71
2022/09/15 09:11:04;;;;;;;3.57;0.97;;;;;;;16.70;89.97;99859.53;5054025;28;20434;-71
2022/09/15 09:13:37;;;;;;;5.13;1.00;;;;;;;16.92;89.63;99868.22;5054073;28;20517;-71
2022/09/15 09:16:26;;;;;;;4.80;1.00;;;;;;;17.02;88.14;99867.59;5053981;28;20441;-70
2022/09/15 09:19:21;;;;;;;5.70;1.50;;;;;;;17.02;87.93;99862.13;5054150;28;20505;-71
2022/09/15 09:21:53;;;;;;;3.97;1.20;;;;;;;17.01;88.81;99855.88;5054053;28;20498;-71
2022/09/15 09:24:33;;;;;;;6.27;1.00;;;;;;;17.17;88.07;99865.91;5053963;28;20440;-71
2022/09/15 09:26:59;;;;;;;7.50;2.00;;;;;;;17.09;87.25;99870.50;5053978;28;20441;-71
2022/09/15 09:29:32;;;;;;;4.17;1.07;;;;;;;17.24;88.18;99864.13;5053785;28;20473;-71
2022/09/15 09:31:59;;;;;;;4.90;1.20;;;;;;;17.25;84.00;99860.22;5053790;28;20419;-70
2022/09/15 09:34:31;;;;;;;4.30;0.97;;;;;;;17.37;84.47;99856.53;5053734;28;20442;-71
2022/09/15 09:37:00;;;;;;;4.37;1.27;;;;;;;17.35;84.33;99856.91;5053427;28;20908;-70
2022/09/15 09:39:28;;;;;;;4.60;1.00;;;;;;;17.45;84.17;99871.94;5077899;22;20506;-73
2022/09/15 09:41:55;;;;;;;3.70;0.90;;;;;;;17.47;83.20;99866.06;5053069;28;20482;-73
2022/09/15 09:44:30;;;;;;;4.20;1.03;;;;;;;17.59;81.74;99863.16;5051150;28;20461;-73
2022/09/15 09:46:57;;;;;;;7.03;0.87;;;;;;;17.83;82.40;99860.03;5047632;28;20465;-74
2022/09/15 09:49:25;;;;;;;4.93;1.33;;;;;;;17.97;78.06;99866.91;5033203;28;20498;-73
2022/09/15 09:51:52;;;;;;;3.30;0.90;;;;;;;17.79;79.38;99858.41;5032899;28;20964;-72
2022/09/15 09:54:23;;;;;;;4.97;1.00;;;;;;;17.83;80.15;99862.00;5033162;28;20447;-73
2022/09/15 09:56:53;;;;;;;3.77;0.90;;;;;;;17.87;78.38;99863.63;5032913;28;20960;-73
2022/09/15 09:59:33;;;;;;;3.90;1.07;;;;;;;17.94;79.25;99859.44;5033049;28;20517;-73
2022/09/15 10:02:14;;;;;;;8.43;1.20;;;;;;;17.88;79.05;99864.41;5032826;28;20968;-72
2022/09/15 10:04:43;;;;;;;5.73;0.80;;;;;;;17.96;79.49;99876.28;5032831;28;21020;-73
2022/09/15 10:07:11;;;;;;;4.83;1.33;;;;;;;18.01;79.81;99863.06;5033101;28;20531;-72
2022/09/15 10:09:37;;;;;;;8.77;1.27;;;;;;;17.98;75.19;99869.28;5032958;28;20495;-73
2022/09/15 10:12:07;;;;;;;4.67;1.10;;;;;;;18.06;76.66;99873.72;5032876;28;20516;-72
2022/09/15 10:14:36;;;;;;;5.30;1.43;;;;;;;18.03;76.99;99870.94;5032826;28;20435;-73
2022/09/15 10:17:07;;;;;;;3.87;0.90;;;;;;;17.97;76.66;99866.91;5032616;28;20454;-72
2022/09/15 10:19:43;;;;;;;3.50;1.10;;;;;;;18.07;74.64;99864.34;5032973;28;20471;-73
2022/09/15 10:22:20;;;;;;;3.20;0.80;;;;;;;18.13;77.04;99864.81;5032897;28;20477;-72
2022/09/15 10:24:48;;;;;;;3.93;0.90;;;;;;;18.32;76.59;99861.94;5033033;28;20455;-73
2022/09/15 10:27:20;;;;;;;3.33;0.73;;;;;;;18.66;74.63;99862.00;5032638;28;20896;-72
2022/09/15 10:29:47;;;;;;;6.67;1.00;;;;;;;18.87;71.47;99853.25;5032873;28;20463;-73
2022/09/15 10:32:23;;;;;;;3.13;0.80;;;;;;;18.68;70.31;99859.66;5032885;28;20454;-71
2022/09/15 10:34:57;;;;;;;2.80;0.50;;;;;;;18.58;71.44;99863.06;5032914;28;20427;-74
2022/09/15 10:37:30;;;;;;;5.33;0.90;;;;;;;18.47;72.16;99851.97;5032977;28;20530;-76
2022/09/15 10:39:59;;;;;;;3.47;1.13;;;;;;;18.33;74.00;99862.75;5032399;28;20477;-72
2022/09/15 10:42:39;;;;;;;3.10;0.70;;;;;;;18.11;71.72;99862.44;5032738;28;20474;-72
2022/09/15 10:45:17;;;;;;;4.70;1.10;;;;;;;17.99;70.56;99859.91;5032927;28;20777;-72
2022/09/15 10:48:07;;;;;;;6.73;0.80;;;;;;;17.92;69.96;99859.78;5032486;28;20594;-72
2022/09/15 10:50:48;;;;;;;4.80;0.80;;;;;;;17.82;70.82;99866.69;5032750;28;20423;-72
2022/09/15 10:53:20;;;;;;;2.90;0.70;;;;;;;17.77;70.65;99861.53;5032746;28;20420;-71
2022/09/15 10:55:56;;;;;;;4.53;0.70;;;;;;;17.75;71.23;99868.50;5033029;28;20467;-70
2022/09/15 10:58:50;;;;;;;4.30;0.80;;;;;;;17.81;70.72;99869.81;5032570;28;20463;-72
2022/09/15 11:01:38;;;;;;;5.07;1.30;;;;;;;17.92;70.87;99859.78;5036311;28;20462;-70
2022/09/15 11:04:12;;;;;;;3.33;0.73;;;;;;;17.86;71.41;99866.75;5036347;28;20467;-72
2022/09/15 11:06:47;;;;;;;3.83;0.90;;;;;;;17.82;69.80;99860.41;5036187;28;20427;-72
2022/09/15 11:09:19;;;;;;;3.60;0.90;;;;;;;18.04;71.00;99858.78;5036226;28;20473;-71
2022/09/15 11:12:16;;;;;;;3.43;0.90;;;;;;;18.91;68.62;99859.56;5036099;28;20436;-72
2022/09/15 11:14:57;;;;;;;3.37;0.90;;;;;;;19.69;63.90;99870.53;5035962;28;20470;-71
2022/09/15 11:17:39;;;;;;;4.00;0.90;;;;;;;19.78;60.22;99873.75;5035949;28;20426;-71
2022/09/15 11:20:38;;;;;;;3.43;0.90;;;;;;;19.44;60.79;99864.03;5035903;28;20498;-72
2022/09/15 11:23:11;;;;;;;3.47;0.70;;;;;;;19.17;61.73;99866.91;5035952;28;20938;-71
2022/09/15 11:25:43;;;;;;;3.60;0.70;;;;;;;18.77;63.18;99865.69;5035641;28;20931;-71
2022/09/15 11:28:13;;;;;;;4.13;0.60;;;;;;;18.73;65.71;99853.88;5035835;28;20462;-72
2022/09/15 11:30:46;;;;;;;3.10;0.63;;;;;;;18.62;65.31;99863.91;5035719;28;20423;-71
2022/09/15 11:33:18;;;;;;;4.60;0.70;;;;;;;18.51;65.53;99860.25;5035465;28;20901;-71
2022/09/15 11:35:50;;;;;;;3.70;0.80;;;;;;;18.23;65.27;99866.13;5035703;28;20860;-71
2022/09/15 11:38:28;;;;;;;3.47;0.80;;;;;;;17.98;68.11;99863.03;5035359;28;20487;-71
2022/09/15 11:41:01;;;;;;;3.10;0.80;;;;;;;17.74;70.97;99866.94;5035609;28;20431;-71
2022/09/15 11:43:34;;;;;;;2.93;0.60;;;;;;;17.83;70.83;99864.75;5035174;28;20474;-71